Time;durP1;ratioP1;P1;durP2;ratioP2;P2;SDS_P1;SDS_P2;PMS_P1;PMS_P2;Temp;Humidity;BMP_temperature;BMP_pressure;BME280_temperature;BME280_humidity;BME280_pressure;Samples;Min_cycle;Max_cycle;Signal;HPM_P1;HPM_P2
2024/01/04 00:01:56;;;;;;;4.10;2.40;;;;;;;8.54;93.11;97797.81;130948;1254;108616;-77
2024/01/04 00:05:03;;;;;;;5.00;2.30;;;;;;;8.52;93.12;97797.77;130997;1254;107805;-78
2024/01/04 00:08:09;;;;;;;3.60;1.90;;;;;;;8.49;93.11;97801.80;131024;1251;107088;-78
2024/01/04 00:11:15;;;;;;;5.60;2.20;;;;;;;8.49;93.13;97798.86;131032;1265;107716;-77
2024/01/04 00:14:21;;;;;;;4.00;1.80;;;;;;;8.50;92.99;97796.48;130985;1251;108443;-77
2024/01/04 00:17:26;;;;;;;2.80;1.80;;;;;;;8.51;93.05;97798.63;130990;1254;108745;-76
2024/01/04 00:20:32;;;;;;;3.20;1.80;;;;;;;8.49;92.88;97799.77;130974;1254;107551;-76
2024/01/04 00:23:38;;;;;;;3.20;1.80;;;;;;;8.46;92.94;97799.02;131027;1251;107923;-77
2024/01/04 00:26:43;;;;;;;2.80;1.30;;;;;;;8.43;93.01;97803.87;131003;1251;107656;-77
2024/01/04 00:29:49;;;;;;;3.10;1.60;;;;;;;8.40;93.19;97799.60;130987;1256;107567;-76
2024/01/04 00:32:55;;;;;;;3.00;1.40;;;;;;;8.41;93.07;97797.05;130987;1254;108492;-77
2024/01/04 00:36:01;;;;;;;2.90;1.40;;;;;;;8.43;93.11;97802.08;130945;1256;107679;-76
2024/01/04 00:39:08;;;;;;;4.70;1.50;;;;;;;8.44;92.95;97799.88;131012;1254;106259;-77
2024/01/04 00:42:13;;;;;;;2.40;1.40;;;;;;;8.43;92.99;97794.64;130923;1254;108235;-77
2024/01/04 00:45:19;;;;;;;2.10;1.20;;;;;;;8.42;93.05;97794.63;130927;1255;107388;-77
2024/01/04 00:48:25;;;;;;;1.80;1.30;;;;;;;8.40;92.92;97791.27;130971;1255;107790;-77
2024/01/04 00:51:30;;;;;;;4.10;1.50;;;;;;;8.39;93.03;97791.19;130955;1251;108999;-77
2024/01/04 00:54:36;;;;;;;2.40;1.60;;;;;;;8.42;93.04;97790.86;131069;1257;108544;-77
2024/01/04 00:57:42;;;;;;;2.70;1.50;;;;;;;8.45;92.98;97795.41;130976;1251;108335;-77
2024/01/04 01:00:47;;;;;;;4.10;1.80;;;;;;;8.46;92.97;97793.20;130981;1257;107294;-77
2024/01/04 01:03:53;;;;;;;5.30;1.80;;;;;;;8.43;92.91;97793.86;130989;1251;108382;-77
2024/01/04 01:06:59;;;;;;;4.80;2.00;;;;;;;8.41;92.95;97793.08;130969;1254;108617;-77
2024/01/04 01:10:04;;;;;;;3.40;1.90;;;;;;;8.39;93.10;97793.08;131031;1254;107633;-77
2024/01/04 01:13:10;;;;;;;5.20;2.50;;;;;;;8.37;92.90;97795.52;130975;1254;108666;-77
2024/01/04 01:16:16;;;;;;;5.50;2.70;;;;;;;8.37;93.12;97794.50;130946;1254;107643;-77
2024/01/04 01:19:22;;;;;;;3.70;2.60;;;;;;;8.39;93.05;97797.90;131014;1254;107649;-78
2024/01/04 01:22:27;;;;;;;4.50;2.90;;;;;;;8.41;92.89;97794.58;130977;1250;108409;-77
2024/01/04 01:25:33;;;;;;;5.80;3.30;;;;;;;8.39;92.90;97795.54;131043;1251;107718;-77
2024/01/04 01:28:39;;;;;;;7.70;4.40;;;;;;;8.35;93.05;97799.89;130977;1252;106351;-77
2024/01/04 01:31:45;;;;;;;13.10;5.70;;;;;;;8.34;93.02;97807.86;130976;1254;107011;-77
2024/01/04 01:34:52;;;;;;;6.90;3.40;;;;;;;8.35;93.11;97807.49;130997;1254;107817;-77
2024/01/04 01:37:57;;;;;;;5.00;2.90;;;;;;;8.38;93.20;97809.63;131017;1254;107714;-77
2024/01/04 01:41:03;;;;;;;5.40;2.80;;;;;;;8.40;93.18;97810.66;131005;1254;108627;-77
2024/01/04 01:44:08;;;;;;;4.20;2.30;;;;;;;8.38;93.08;97813.39;130929;1251;109828;-77
2024/01/04 01:47:16;;;;;;;4.10;2.40;;;;;;;8.34;93.29;97812.07;130955;1254;107996;-77
2024/01/04 01:50:23;;;;;;;3.50;2.20;;;;;;;8.33;93.37;97813.70;130980;1256;106609;-78
2024/01/04 01:53:29;;;;;;;3.50;1.90;;;;;;;8.34;93.37;97812.60;131006;1254;108664;-77
2024/01/04 01:56:35;;;;;;;3.20;2.10;;;;;;;8.36;93.28;97815.22;131033;1254;108693;-77
2024/01/04 01:59:41;;;;;;;3.70;1.80;;;;;;;8.36;93.27;97812.16;131078;1253;107556;-77
2024/01/04 02:02:50;;;;;;;2.80;1.70;;;;;;;8.35;93.22;97811.38;130969;1254;107725;-78
2024/01/04 02:05:56;;;;;;;4.00;1.90;;;;;;;8.35;93.50;97805.98;131038;1253;108181;-77
2024/01/04 02:09:02;;;;;;;2.90;1.80;;;;;;;8.36;93.47;97807.18;131072;1264;108183;-77
2024/01/04 02:12:12;;;;;;;3.40;2.00;;;;;;;8.39;93.34;97800.48;131021;1263;107664;-77
2024/01/04 02:15:19;;;;;;;3.60;2.00;;;;;;;8.41;93.46;97802.17;130996;1254;106999;-77
2024/01/04 02:18:25;;;;;;;3.70;2.40;;;;;;;8.41;93.47;97801.91;131005;1250;107336;-77
2024/01/04 02:21:30;;;;;;;4.20;2.10;;;;;;;8.41;93.42;97801.48;130997;1254;106754;-77
2024/01/04 02:24:36;;;;;;;3.30;2.20;;;;;;;8.39;93.34;97795.48;131016;1254;106672;-77
2024/01/04 02:27:41;;;;;;;3.30;1.70;;;;;;;8.38;93.39;97790.70;130993;1255;108242;-77
2024/01/04 02:30:47;;;;;;;2.70;1.90;;;;;;;8.35;93.38;97790.00;131032;1257;107482;-77
2024/01/04 02:33:52;;;;;;;3.70;2.10;;;;;;;8.35;93.38;97781.17;130984;1251;108521;-77
2024/01/04 02:36:59;;;;;;;4.80;2.40;;;;;;;8.37;93.37;97779.09;130975;1250;108452;-77
2024/01/04 02:40:06;;;;;;;4.20;2.40;;;;;;;8.36;93.28;97773.77;131082;1264;109663;-77
2024/01/04 02:43:11;;;;;;;4.40;2.70;;;;;;;8.33;93.29;97778.22;131001;1250;108479;-77
2024/01/04 02:46:17;;;;;;;4.00;2.20;;;;;;;8.30;93.35;97775.23;130941;1254;108612;-77
2024/01/04 02:49:23;;;;;;;2.70;1.80;;;;;;;8.29;93.40;97780.63;130943;1250;108100;-77
2024/01/04 02:52:29;;;;;;;3.30;2.20;;;;;;;8.29;93.38;97778.94;131007;1256;106811;-77
2024/01/04 02:55:35;;;;;;;4.80;2.70;;;;;;;8.31;93.53;97777.60;131046;1254;108754;-77
2024/01/04 02:58:44;;;;;;;5.70;2.60;;;;;;;8.33;93.43;97777.85;131001;1250;108433;-77
2024/01/04 03:01:50;;;;;;;5.20;3.20;;;;;;;8.34;93.35;97779.37;130956;1255;108678;-77
2024/01/04 03:04:56;;;;;;;4.30;2.90;;;;;;;8.33;93.39;97776.42;130999;1250;108292;-77
2024/01/04 03:08:02;;;;;;;5.10;3.10;;;;;;;8.32;93.45;97777.55;130967;1254;108730;-77
2024/01/04 03:11:08;;;;;;;5.70;3.20;;;;;;;8.30;93.50;97775.42;131032;1254;107820;-77
2024/01/04 03:14:13;;;;;;;6.40;3.80;;;;;;;8.30;93.56;97773.15;130981;1254;106829;-78
2024/01/04 03:17:19;;;;;;;5.80;3.60;;;;;;;8.32;93.45;97771.67;130988;1251;107663;-77
2024/01/04 03:20:25;;;;;;;6.20;3.60;;;;;;;8.31;93.26;97767.37;130958;1250;107210;-77
2024/01/04 03:23:30;;;;;;;6.20;3.80;;;;;;;8.31;93.35;97765.54;131053;1251;106098;-78
2024/01/04 03:26:36;;;;;;;5.30;3.50;;;;;;;8.30;93.25;97763.94;131041;1254;106489;-78
2024/01/04 03:29:42;;;;;;;4.30;2.80;;;;;;;8.27;93.39;97761.94;130925;1251;108965;-78
2024/01/04 03:32:47;;;;;;;5.50;3.70;;;;;;;8.26;93.45;97760.33;130926;1257;109232;-78
2024/01/04 03:35:53;;;;;;;5.00;3.20;;;;;;;8.26;93.48;97757.48;130904;1250;177951;-78
2024/01/04 03:38:58;;;;;;;5.30;3.20;;;;;;;8.26;93.32;97755.84;131132;1254;106980;-80
2024/01/04 03:42:05;;;;;;;5.10;3.30;;;;;;;8.26;93.30;97752.40;131229;1251;107150;-77
2024/01/04 03:45:11;;;;;;;6.90;3.20;;;;;;;8.20;93.43;97748.67;130932;1256;107138;-78
2024/01/04 03:48:16;;;;;;;8.80;5.60;;;;;;;8.16;93.37;97750.86;130971;1255;108693;-77
2024/01/04 03:51:22;;;;;;;41.70;16.50;;;;;;;8.14;93.62;97749.21;131044;1251;108644;-77
2024/01/04 03:54:27;;;;;;;305.90;109.30;;;;;;;8.14;93.61;97750.41;131237;1251;106366;-77
2024/01/04 03:57:33;;;;;;;71.70;27.90;;;;;;;8.15;93.59;97751.52;130963;1254;107831;-77
2024/01/04 04:00:39;;;;;;;34.20;19.90;;;;;;;8.17;93.61;97752.79;130994;1256;107768;-77
2024/01/04 04:03:44;;;;;;;17.70;12.00;;;;;;;8.21;93.48;97747.16;130970;1256;107600;-77
2024/01/04 04:06:50;;;;;;;16.70;11.90;;;;;;;8.23;93.55;97744.22;130916;1255;107684;-77
2024/01/04 04:09:55;;;;;;;9.60;6.30;;;;;;;8.24;93.53;97739.44;130982;1255;108363;-77
2024/01/04 04:13:01;;;;;;;6.50;4.30;;;;;;;8.21;93.29;97733.51;130947;1255;108599;-77
2024/01/04 04:16:07;;;;;;;18.30;12.70;;;;;;;8.19;93.51;97732.77;130926;1253;108379;-77
2024/01/04 04:19:13;;;;;;;8.10;5.90;;;;;;;8.20;93.42;97733.14;130969;1250;108390;-76
2024/01/04 04:22:19;;;;;;;6.40;4.60;;;;;;;8.22;93.50;97730.93;130998;1254;106648;-77
2024/01/04 04:25:25;;;;;;;7.80;4.70;;;;;;;8.23;93.45;97730.86;131048;1254;108572;-77
2024/01/04 04:28:31;;;;;;;5.70;3.80;;;;;;;8.22;93.55;97728.57;130956;1250;106593;-77
2024/01/04 04:31:36;;;;;;;4.40;3.30;;;;;;;8.20;93.47;97731.35;130943;1265;107470;-77
2024/01/04 04:34:42;;;;;;;4.20;3.30;;;;;;;8.17;93.57;97730.30;130938;1250;107385;-76
2024/01/04 04:37:48;;;;;;;7.80;5.00;;;;;;;8.18;93.53;97734.67;130983;1250;107785;-77
2024/01/04 04:40:53;;;;;;;7.70;4.50;;;;;;;8.18;93.48;97735.86;131017;1251;106405;-77
2024/01/04 04:43:59;;;;;;;9.00;4.60;;;;;;;8.19;93.43;97739.64;130991;1257;106757;-77
2024/01/04 04:47:05;;;;;;;7.10;5.20;;;;;;;8.18;93.26;97740.69;130999;1254;105710;-77
2024/01/04 04:50:11;;;;;;;7.10;4.50;;;;;;;8.13;93.31;97739.04;130971;1254;106464;-77
2024/01/04 04:53:17;;;;;;;6.90;3.10;;;;;;;8.07;93.47;97737.99;130964;1254;108368;-77
2024/01/04 04:56:22;;;;;;;5.10;2.90;;;;;;;8.03;93.44;97735.86;130992;1256;107707;-77
2024/01/04 04:59:28;;;;;;;7.60;4.90;;;;;;;8.00;93.39;97738.52;130971;1254;108443;-77
2024/01/04 05:02:33;;;;;;;485.00;257.80;;;;;;;8.00;93.54;97742.79;131028;1254;106786;-77
2024/01/04 05:05:39;;;;;;;100.30;40.10;;;;;;;7.99;93.51;97739.27;130962;1250;107920;-78
2024/01/04 05:08:45;;;;;;;111.20;43.90;;;;;;;7.98;93.58;97742.27;130995;1250;106405;-76
2024/01/04 05:11:50;;;;;;;511.30;222.30;;;;;;;7.99;93.72;97748.42;131041;1254;106919;-77
2024/01/04 05:14:56;;;;;;;489.50;208.30;;;;;;;7.98;93.62;97747.16;130991;1254;106132;-77
2024/01/04 05:18:02;;;;;;;232.60;78.20;;;;;;;7.97;93.78;97751.38;130970;1259;106301;-77
2024/01/04 05:21:07;;;;;;;262.80;89.30;;;;;;;7.95;93.72;97749.64;130970;1256;108475;-77
2024/01/04 05:24:13;;;;;;;770.40;336.50;;;;;;;7.96;93.80;97750.25;130993;1254;108681;-77
2024/01/04 05:27:18;;;;;;;218.90;68.20;;;;;;;7.98;93.82;97748.50;131085;1254;108536;-77
2024/01/04 05:30:24;;;;;;;306.80;130.70;;;;;;;8.03;93.77;97754.65;130951;1250;108476;-77
2024/01/04 05:33:30;;;;;;;162.40;66.10;;;;;;;8.05;93.77;97756.14;130970;1250;107347;-77
2024/01/04 05:36:35;;;;;;;435.10;187.10;;;;;;;8.05;93.70;97760.55;130948;1254;108524;-77
2024/01/04 05:39:42;;;;;;;668.20;322.70;;;;;;;8.05;93.89;97763.62;131009;1254;106359;-77
2024/01/04 05:42:47;;;;;;;634.50;313.30;;;;;;;8.05;93.73;97765.05;131007;1254;107699;-77
2024/01/04 05:45:53;;;;;;;409.10;176.10;;;;;;;8.08;93.84;97764.64;130982;1254;107709;-77
2024/01/04 05:48:59;;;;;;;323.30;132.20;;;;;;;8.11;93.71;97764.61;130959;1250;106583;-77
2024/01/04 05:52:05;;;;;;;174.90;74.50;;;;;;;8.13;93.83;97768.05;131037;1254;106611;-77
2024/01/04 05:55:11;;;;;;;63.80;32.80;;;;;;;8.13;93.90;97770.70;131015;1254;108045;-77
2024/01/04 05:58:16;;;;;;;19.20;11.00;;;;;;;8.13;93.81;97776.39;131006;1257;107800;-78
2024/01/04 06:01:22;;;;;;;17.00;11.90;;;;;;;8.11;93.90;97774.13;130964;1251;108576;-76
2024/01/04 06:04:28;;;;;;;52.90;37.10;;;;;;;8.13;93.97;97774.92;131054;1250;108572;-77
2024/01/04 06:07:33;;;;;;;20.50;12.50;;;;;;;8.16;93.95;97772.40;130946;1250;107745;-76
2024/01/04 06:10:39;;;;;;;35.80;26.00;;;;;;;8.18;93.88;97775.39;130999;1265;108344;-77
2024/01/04 06:13:44;;;;;;;25.70;18.00;;;;;;;8.17;93.95;97776.36;130950;1254;108732;-76
2024/01/04 06:16:50;;;;;;;16.40;11.70;;;;;;;8.17;93.95;97778.85;130983;1254;106563;-79
2024/01/04 06:19:56;;;;;;;31.40;19.20;;;;;;;8.18;94.07;97783.52;130946;1254;108026;-78
2024/01/04 06:23:01;;;;;;;45.80;27.70;;;;;;;8.20;94.02;97784.47;130973;1260;108305;-78
2024/01/04 06:26:07;;;;;;;27.40;16.70;;;;;;;8.21;94.03;97785.16;131010;1250;107765;-73
2024/01/04 06:29:13;;;;;;;63.10;39.80;;;;;;;8.22;93.97;97786.80;130951;1250;107611;-73
2024/01/04 06:32:18;;;;;;;35.30;21.00;;;;;;;8.21;93.96;97787.39;130958;1254;108471;-73
2024/01/04 06:35:24;;;;;;;31.10;18.40;;;;;;;8.20;94.05;97786.11;130966;1254;108232;-73
2024/01/04 06:38:29;;;;;;;62.70;36.60;;;;;;;8.21;93.88;97784.89;131024;1251;108684;-73
2024/01/04 06:41:35;;;;;;;45.60;29.40;;;;;;;8.23;94.10;97784.93;131059;1254;108677;-73
2024/01/04 06:44:41;;;;;;;54.90;38.00;;;;;;;8.25;94.02;97788.09;130981;1250;108526;-73
2024/01/04 06:47:47;;;;;;;15.60;10.90;;;;;;;8.27;94.17;97787.32;130995;1254;107426;-73
2024/01/04 06:50:52;;;;;;;7.00;4.60;;;;;;;8.26;94.11;97787.80;130979;1254;106589;-73
2024/01/04 06:53:58;;;;;;;26.50;13.80;;;;;;;8.25;94.18;97788.12;130957;1255;109061;-73
2024/01/04 06:57:06;;;;;;;10.70;6.50;;;;;;;8.25;94.23;97787.55;131035;1254;107681;-73
2024/01/04 07:00:13;;;;;;;7.90;4.80;;;;;;;8.30;94.34;97788.70;131022;1250;108749;-73
2024/01/04 07:03:20;;;;;;;6.20;4.40;;;;;;;8.32;94.30;97790.39;130944;1250;107639;-73
2024/01/04 07:06:25;;;;;;;7.20;4.40;;;;;;;8.32;94.20;97785.24;131034;1254;108245;-73
2024/01/04 07:09:31;;;;;;;6.80;4.30;;;;;;;8.32;94.24;97788.88;131020;1251;107757;-73
2024/01/04 07:12:37;;;;;;;5.70;4.00;;;;;;;8.31;94.27;97787.48;131036;1254;108668;-73
2024/01/04 07:15:43;;;;;;;7.10;4.30;;;;;;;8.33;94.13;97790.48;131006;1251;108707;-73
2024/01/04 07:18:48;;;;;;;6.70;4.90;;;;;;;8.36;94.26;97790.09;130968;1256;108542;-73
2024/01/04 07:21:54;;;;;;;8.70;6.00;;;;;;;8.40;94.30;97793.44;130970;1251;106738;-73
2024/01/04 07:24:59;;;;;;;8.10;5.40;;;;;;;8.41;94.33;97792.03;131044;1251;107725;-73
2024/01/04 07:28:06;;;;;;;7.00;4.70;;;;;;;8.41;94.23;97791.16;130958;1250;108685;-72
2024/01/04 07:31:12;;;;;;;5.90;4.30;;;;;;;8.41;94.17;97792.63;130977;1256;108943;-72
2024/01/04 07:34:17;;;;;;;9.20;5.80;;;;;;;8.40;94.39;97797.73;130970;1254;108900;-72
2024/01/04 07:37:23;;;;;;;9.10;5.10;;;;;;;8.40;94.53;97798.88;131089;1254;108667;-72
2024/01/04 07:40:28;;;;;;;10.80;5.90;;;;;;;8.43;94.37;97796.72;131036;1251;107618;-72
2024/01/04 07:43:34;;;;;;;7.60;4.30;;;;;;;8.44;94.40;97797.58;130998;1255;107327;-72
2024/01/04 07:46:40;;;;;;;5.00;3.50;;;;;;;8.45;94.43;97796.03;130971;1254;107462;-73
2024/01/04 07:49:45;;;;;;;237.70;96.30;;;;;;;8.43;94.45;97795.74;130996;1256;106812;-72
2024/01/04 07:52:51;;;;;;;659.30;288.70;;;;;;;8.45;94.53;97797.39;131015;1250;107630;-73
2024/01/04 07:55:57;;;;;;;680.60;276.70;;;;;;;8.49;94.53;97796.23;131037;1254;107349;-72
2024/01/04 07:59:03;;;;;;;600.40;235.60;;;;;;;8.51;94.52;97795.27;131001;1251;107644;-72
2024/01/04 08:02:08;;;;;;;836.60;357.50;;;;;;;8.52;94.50;97796.21;131049;1251;107609;-73
2024/01/04 08:05:14;;;;;;;435.80;155.70;;;;;;;8.52;94.56;97797.73;130971;1254;106886;-73
2024/01/04 08:08:20;;;;;;;398.10;129.50;;;;;;;8.53;94.27;97798.46;130963;1254;108015;-75
2024/01/04 08:11:26;;;;;;;451.90;207.90;;;;;;;8.57;94.46;97799.62;131040;1250;107618;-73
2024/01/04 08:14:33;;;;;;;315.20;162.00;;;;;;;8.60;94.39;97800.29;130995;1256;108248;-73
2024/01/04 08:17:38;;;;;;;182.80;95.00;;;;;;;8.64;94.40;97801.67;131077;1267;108735;-73
2024/01/04 08:20:45;;;;;;;165.70;92.00;;;;;;;8.65;94.33;97799.88;131072;1251;107693;-74
2024/01/04 08:23:52;;;;;;;95.30;58.50;;;;;;;8.64;94.40;97801.80;130966;1254;107222;-73
2024/01/04 08:26:58;;;;;;;84.50;57.30;;;;;;;8.63;94.17;97803.27;131043;1254;108955;-74
2024/01/04 08:30:04;;;;;;;82.00;49.10;;;;;;;8.60;94.26;97804.99;131012;1255;106445;-73
2024/01/04 08:33:10;;;;;;;105.60;69.00;;;;;;;8.60;94.36;97808.39;130984;1251;106483;-73
2024/01/04 08:36:16;;;;;;;141.80;91.70;;;;;;;8.65;94.32;97811.49;130957;1254;107517;-74
2024/01/04 08:39:21;;;;;;;116.30;73.80;;;;;;;8.71;94.37;97813.52;130993;1254;108682;-73
2024/01/04 08:42:27;;;;;;;96.90;66.90;;;;;;;8.73;94.22;97814.17;131030;1256;108488;-74
2024/01/04 08:45:33;;;;;;;74.50;54.00;;;;;;;8.73;94.24;97812.63;130985;1255;109472;-75
2024/01/04 08:48:38;;;;;;;17.20;13.30;;;;;;;8.70;94.15;97817.07;130931;1255;108226;-75
2024/01/04 08:51:44;;;;;;;565.10;226.60;;;;;;;8.68;94.28;97815.84;131051;1254;108058;-75
2024/01/04 08:54:49;;;;;;;127.90;43.10;;;;;;;8.71;94.41;97819.23;131032;1256;106597;-73
2024/01/04 08:57:55;;;;;;;221.50;77.90;;;;;;;8.74;94.44;97818.84;131048;1255;107505;-73
2024/01/04 09:01:00;;;;;;;331.10;119.30;;;;;;;8.79;94.19;97822.25;130973;1254;105691;-73
2024/01/04 09:04:06;;;;;;;301.90;101.20;;;;;;;8.80;94.29;97819.91;130950;1254;109073;-73
2024/01/04 09:07:12;;;;;;;79.10;29.40;;;;;;;8.81;94.42;97820.90;130969;1254;107643;-73
2024/01/04 09:10:17;;;;;;;199.20;68.30;;;;;;;8.83;94.23;97827.94;131146;1254;108595;-74
2024/01/04 09:13:23;;;;;;;271.80;94.30;;;;;;;8.86;94.46;97824.30;131009;1251;107195;-73
2024/01/04 09:16:29;;;;;;;167.30;57.60;;;;;;;8.92;94.46;97827.39;130980;1256;108678;-73
2024/01/04 09:19:35;;;;;;;208.00;71.60;;;;;;;8.95;94.27;97832.02;131014;1254;107653;-73
2024/01/04 09:22:41;;;;;;;503.40;186.60;;;;;;;8.94;94.13;97832.25;131008;1251;106679;-73
2024/01/04 09:25:46;;;;;;;174.70;56.60;;;;;;;8.95;94.26;97840.81;131040;1250;106606;-73
2024/01/04 09:28:52;;;;;;;303.50;108.00;;;;;;;8.96;93.97;97838.57;131005;1255;107698;-73
2024/01/04 09:31:58;;;;;;;416.50;159.20;;;;;;;8.98;94.13;97833.70;130978;1255;108992;-73
2024/01/04 09:35:03;;;;;;;246.00;88.60;;;;;;;9.01;93.98;97831.85;131021;1256;108610;-73
2024/01/04 09:38:09;;;;;;;170.50;63.20;;;;;;;9.06;93.85;97836.20;130970;1250;108533;-73
2024/01/04 09:41:24;;;;;;;64.40;26.40;;;;;;;9.07;93.84;97832.77;131018;1256;106712;-73
2024/01/04 09:44:33;;;;;;;163.70;61.10;;;;;;;9.09;93.95;97837.83;131000;1251;107362;-73
2024/01/04 09:47:43;;;;;;;147.90;56.70;;;;;;;9.12;93.86;97840.63;131056;1256;108323;-73
2024/01/04 09:50:48;;;;;;;80.10;31.90;;;;;;;9.17;94.24;97845.25;131000;1251;108460;-74
2024/01/04 09:53:55;;;;;;;221.80;90.70;;;;;;;9.21;93.93;97848.38;131042;1256;109078;-73
2024/01/04 09:57:01;;;;;;;62.30;25.90;;;;;;;9.25;93.66;97841.91;131090;1265;106457;-73
2024/01/04 10:00:09;;;;;;;161.90;61.30;;;;;;;9.23;93.45;97839.65;131020;1250;107823;-73
2024/01/04 10:03:18;;;;;;;105.90;37.70;;;;;;;9.24;93.67;97840.97;131005;1256;106891;-73
2024/01/04 10:06:32;;;;;;;373.70;140.40;;;;;;;9.23;93.85;97839.45;131082;1257;107411;-73
2024/01/04 10:09:46;;;;;;;631.40;267.20;;;;;;;9.29;93.59;97839.45;130993;1251;108661;-73
2024/01/04 10:12:55;;;;;;;251.60;93.20;;;;;;;9.33;93.46;97838.19;131094;1254;108600;-73
2024/01/04 10:16:05;;;;;;;226.00;84.70;;;;;;;9.33;93.59;97841.30;131016;1251;106670;-74
2024/01/04 10:19:11;;;;;;;304.20;109.80;;;;;;;9.33;93.60;97842.98;131033;1250;108620;-73
2024/01/04 10:22:20;;;;;;;281.80;101.30;;;;;;;9.31;93.28;97844.34;131020;1251;107589;-73
2024/01/04 10:25:26;;;;;;;139.80;54.20;;;;;;;9.25;93.41;97844.85;131058;1254;107777;-73
2024/01/04 10:28:31;;;;;;;149.40;63.00;;;;;;;9.28;93.58;97845.19;130991;1250;107604;-73
2024/01/04 10:31:37;;;;;;;491.90;203.30;;;;;;;9.32;93.38;97848.38;130999;1257;106952;-73
2024/01/04 10:34:44;;;;;;;135.80;45.60;;;;;;;9.33;93.05;97848.05;130974;1251;107573;-73
2024/01/04 10:38:00;;;;;;;276.40;112.50;;;;;;;9.35;93.09;97847.93;130991;1256;107358;-73
2024/01/04 10:41:06;;;;;;;397.30;197.20;;;;;;;9.40;93.24;97847.28;131093;1257;108281;-73
2024/01/04 10:44:11;;;;;;;118.90;57.80;;;;;;;9.51;93.25;97846.54;131011;1254;107732;-72
2024/01/04 10:47:18;;;;;;;62.80;30.30;;;;;;;9.63;93.19;97847.88;131031;1252;107731;-72
2024/01/04 10:50:25;;;;;;;133.00;60.70;;;;;;;9.65;92.67;97844.52;131033;1256;107597;-74
2024/01/04 10:53:36;;;;;;;119.00;63.30;;;;;;;9.69;92.53;97843.30;130968;1255;106592;-74
2024/01/04 10:56:42;;;;;;;89.60;48.60;;;;;;;9.72;92.29;97840.41;131082;1256;106602;-74
2024/01/04 10:59:49;;;;;;;103.00;64.00;;;;;;;9.75;92.05;97836.23;131034;1256;106740;-74
2024/01/04 11:02:57;;;;;;;34.10;20.80;;;;;;;9.67;92.16;97838.05;131002;1256;106547;-74
2024/01/04 11:06:04;;;;;;;69.40;39.40;;;;;;;9.59;91.96;97831.88;130988;1254;107884;-74
2024/01/04 11:09:10;;;;;;;18.40;11.40;;;;;;;9.51;91.80;97833.88;131023;1256;107731;-74
2024/01/04 11:12:17;;;;;;;22.50;14.30;;;;;;;9.47;91.79;97829.30;131365;1251;106550;-75
2024/01/04 11:15:23;;;;;;;17.10;11.70;;;;;;;9.49;91.94;97825.98;131065;1256;106631;-73
2024/01/04 11:18:49;;;;;;;10.90;7.40;;;;;;;9.49;91.63;97823.57;131010;1255;107028;-74
2024/01/04 11:22:09;;;;;;;22.30;15.90;;;;;;;9.51;91.75;97824.15;131032;1250;108520;-73
2024/01/04 11:25:35;;;;;;;9.80;6.30;;;;;;;9.50;91.72;97820.25;131020;1257;107266;-73
2024/01/04 11:28:41;;;;;;;20.50;12.70;;;;;;;9.46;91.29;97813.86;131054;1264;108470;-75
2024/01/04 11:31:47;;;;;;;19.00;12.60;;;;;;;9.45;91.40;97812.05;131107;1255;108566;-74
2024/01/04 11:34:52;;;;;;;18.30;12.40;;;;;;;9.48;91.23;97809.98;131025;1256;106572;-73
2024/01/04 11:37:58;;;;;;;18.70;11.60;;;;;;;9.54;91.22;97805.25;130948;1256;106522;-73
2024/01/04 11:41:04;;;;;;;10.60;7.20;;;;;;;9.59;91.09;97807.01;131070;1274;107425;-73
2024/01/04 11:44:22;;;;;;;16.30;11.30;;;;;;;9.59;90.98;97799.51;131150;1255;106560;-74
2024/01/04 11:47:29;;;;;;;31.40;21.00;;;;;;;9.51;90.68;97803.34;131086;1256;108675;-73
2024/01/04 11:50:38;;;;;;;23.30;14.00;;;;;;;9.42;90.70;97809.86;131180;1251;107462;-74
2024/01/04 11:53:47;;;;;;;146.60;48.70;;;;;;;9.31;90.72;97816.07;131128;1256;107440;-74
2024/01/04 11:56:52;;;;;;;119.40;42.40;;;;;;;9.16;89.26;97815.34;131084;1256;108636;-75
2024/01/04 11:59:58;;;;;;;129.00;48.20;;;;;;;9.04;89.49;97827.23;131111;1257;108641;-75
2024/01/04 12:03:14;;;;;;;123.30;45.90;;;;;;;8.96;89.41;97831.89;131051;1250;108671;-74
2024/01/04 12:06:21;;;;;;;219.60;84.00;;;;;;;8.90;89.44;97833.44;131035;1251;108423;-72
2024/01/04 12:09:31;;;;;;;106.40;38.90;;;;;;;8.83;89.60;97833.46;131153;1250;107167;-74
2024/01/04 12:12:42;;;;;;;182.50;65.50;;;;;;;8.77;89.69;97840.30;131223;1255;108956;-74
2024/01/04 12:15:47;;;;;;;232.80;70.90;;;;;;;8.70;89.74;97836.42;130990;1250;105755;-74
2024/01/04 12:18:53;;;;;;;346.30;110.00;;;;;;;8.63;89.46;97843.11;130993;1250;107444;-74
2024/01/04 12:21:58;;;;;;;201.50;61.50;;;;;;;8.58;89.76;97847.55;131028;1256;106357;-73
2024/01/04 12:25:06;;;;;;;125.70;40.70;;;;;;;8.61;89.87;97849.77;131013;1256;107864;-74
2024/01/04 12:28:13;;;;;;;410.40;134.20;;;;;;;8.61;89.65;97857.54;131168;1256;107765;-74
2024/01/04 12:31:19;;;;;;;69.50;22.50;;;;;;;8.62;89.75;97858.65;131035;1255;106421;-76
2024/01/04 12:34:25;;;;;;;408.00;139.60;;;;;;;8.57;89.40;97861.25;130969;1256;107524;-74
2024/01/04 12:37:31;;;;;;;293.80;85.60;;;;;;;8.53;89.97;97859.39;131029;1254;107801;-75
2024/01/04 12:40:45;;;;;;;436.00;151.60;;;;;;;8.58;90.05;97859.70;131031;1250;107679;-75
2024/01/04 12:43:53;;;;;;;335.80;112.00;;;;;;;8.63;89.86;97857.10;131071;1256;106494;-76
2024/01/04 12:47:09;;;;;;;773.20;360.10;;;;;;;8.65;90.07;97861.27;131017;1254;106197;-75
2024/01/04 12:50:20;;;;;;;304.90;106.30;;;;;;;8.70;90.15;97861.16;131086;1250;108514;-76
2024/01/04 12:53:26;;;;;;;422.50;163.20;;;;;;;8.72;89.77;97860.38;131063;1255;108638;-76
2024/01/04 12:56:32;;;;;;;641.30;265.10;;;;;;;8.71;89.79;97863.29;131045;1256;108420;-76
2024/01/04 12:59:37;;;;;;;330.30;157.70;;;;;;;8.68;89.75;97866.19;131022;1256;106870;-75
2024/01/04 13:02:47;;;;;;;44.40;25.60;;;;;;;8.62;89.80;97862.65;131006;1256;107702;-76
2024/01/04 13:05:52;;;;;;;57.40;37.60;;;;;;;8.64;89.77;97865.15;131065;1256;106830;-75
2024/01/04 13:08:58;;;;;;;294.00;131.90;;;;;;;8.64;89.61;97866.84;131007;1256;107652;-76
2024/01/04 13:12:04;;;;;;;155.40;76.50;;;;;;;8.65;89.55;97865.36;131080;1250;106703;-76
2024/01/04 13:15:10;;;;;;;77.30;39.80;;;;;;;8.64;89.44;97867.56;131021;1250;107695;-75
2024/01/04 13:18:16;;;;;;;55.80;30.90;;;;;;;8.60;89.50;97871.48;130986;1256;107098;-75
2024/01/04 13:21:22;;;;;;;19.50;12.10;;;;;;;8.55;89.47;97872.64;130963;1256;107791;-75
2024/01/04 13:24:29;;;;;;;26.80;17.50;;;;;;;8.48;89.55;97871.60;131097;1255;108839;-75
2024/01/04 13:27:34;;;;;;;16.20;11.40;;;;;;;8.47;89.64;97876.30;131079;1251;106986;-76
2024/01/04 13:30:41;;;;;;;20.10;14.30;;;;;;;8.48;89.74;97878.30;131015;1256;106477;-75
2024/01/04 13:33:47;;;;;;;22.40;17.40;;;;;;;8.51;89.65;97877.77;130972;1256;106344;-76
2024/01/04 13:36:52;;;;;;;18.60;12.70;;;;;;;8.49;89.21;97877.48;131062;1250;107486;-75
2024/01/04 13:39:58;;;;;;;21.00;9.30;;;;;;;8.47;89.33;97874.38;130992;1256;107605;-75
2024/01/04 13:43:03;;;;;;;10.30;5.80;;;;;;;8.45;89.31;97870.44;131059;1263;108647;-75
2024/01/04 13:46:09;;;;;;;7.70;4.70;;;;;;;8.45;89.44;97872.86;130990;1256;106486;-76
2024/01/04 13:49:15;;;;;;;8.70;4.70;;;;;;;8.46;89.29;97877.52;131083;1255;107539;-75
2024/01/04 13:52:25;;;;;;;6.70;4.20;;;;;;;8.47;89.51;97881.98;131003;1255;108635;-76
2024/01/04 13:55:37;;;;;;;7.40;4.50;;;;;;;8.48;89.32;97883.52;130983;1256;109775;-77
2024/01/04 13:58:46;;;;;;;7.60;4.30;;;;;;;8.46;89.25;97886.02;131298;1250;107084;-77
2024/01/04 14:01:53;;;;;;;6.80;4.10;;;;;;;8.46;89.23;97886.71;130975;1256;107589;-76
2024/01/04 14:05:00;;;;;;;5.40;3.40;;;;;;;8.45;89.01;97888.96;130995;1257;108664;-76
2024/01/04 14:08:11;;;;;;;4.90;3.20;;;;;;;8.41;89.13;97889.98;131093;1256;107310;-76
2024/01/04 14:11:21;;;;;;;6.90;4.30;;;;;;;8.40;89.28;97891.73;131142;1257;106966;-76